createdAt,value
2022-11-19T00:04:25.593Z,3.15
2022-11-19T00:09:29.175Z,4.13
2022-11-19T00:14:32.487Z,3.88
2022-11-19T00:24:39.433Z,4.05
2022-11-19T00:29:43.426Z,3.75
2022-11-19T00:34:46.939Z,4.28
2022-11-19T00:39:50.380Z,4.00
2022-11-19T00:49:58.794Z,3.60
2022-11-19T01:00:06.972Z,3.60
2022-11-19T01:05:12.449Z,4.07
2022-11-19T01:10:16.186Z,4.60
2022-11-19T01:15:19.993Z,3.72
2022-11-19T01:20:32.310Z,3.97
2022-11-19T01:25:35.912Z,3.90
2022-11-19T01:30:43.409Z,3.50
2022-11-19T01:35:59.666Z,3.42
2022-11-19T01:41:03.871Z,3.75
2022-11-19T01:46:07.628Z,4.13
2022-11-19T01:51:55.983Z,3.80
2022-11-19T01:57:05.242Z,3.85
2022-11-19T02:02:11.671Z,4.10
2022-11-19T02:07:15.637Z,4.22
2022-11-19T02:12:24.802Z,4.53
2022-11-19T02:17:46.401Z,4.00
2022-11-19T02:23:04.677Z,3.80
2022-11-19T02:28:21.352Z,4.00
2022-11-19T02:33:48.770Z,3.97
2022-11-19T02:39:02.932Z,4.47
2022-11-19T02:44:56.020Z,3.78
2022-11-19T02:50:17.520Z,3.97
2022-11-19T02:55:22.444Z,4.15
2022-11-19T03:00:26.877Z,3.55
2022-11-19T03:05:34.840Z,4.10
2022-11-19T03:10:55.086Z,4.32
2022-11-19T03:15:59.315Z,5.05
2022-11-19T03:21:05.582Z,4.30
2022-11-19T03:26:50.803Z,6.60
2022-11-19T03:32:04.477Z,4.50
2022-11-19T03:37:10.589Z,4.63
2022-11-19T03:42:17.300Z,4.18
2022-11-19T03:47:27.538Z,4.00
2022-11-19T03:52:33.606Z,4.95
2022-11-19T03:57:36.884Z,5.20
2022-11-19T04:02:41.144Z,4.85
2022-11-19T04:07:49.376Z,5.25
2022-11-19T04:17:56.357Z,5.15
2022-11-19T04:23:02.432Z,5.50
2022-11-19T04:28:09.199Z,5.97
2022-11-19T04:33:12.547Z,5.47
2022-11-19T04:38:18.550Z,5.75
2022-11-19T04:43:24.985Z,5.30
2022-11-19T04:48:28.373Z,4.80
2022-11-19T04:53:31.959Z,5.30
2022-11-19T04:58:35.774Z,5.40
2022-11-19T05:03:40.761Z,5.43
2022-11-19T05:08:50.778Z,5.70
2022-11-19T05:13:54.193Z,6.10
2022-11-19T05:18:57.486Z,5.88
2022-11-19T05:29:04.479Z,5.50
2022-11-19T05:34:08.744Z,5.15
2022-11-19T05:39:13.432Z,5.63
2022-11-19T05:44:19.187Z,4.57
2022-11-19T05:49:23.460Z,5.95
2022-11-19T05:54:27.036Z,5.13
2022-11-19T05:59:30.466Z,4.78
2022-11-19T06:04:33.881Z,5.60
2022-11-19T06:09:37.363Z,6.00
2022-11-19T06:14:40.737Z,5.03
2022-11-19T06:19:44.912Z,5.72
2022-11-19T06:24:49.148Z,6.30
2022-11-19T06:29:56.243Z,5.82
2022-11-19T06:35:00.141Z,5.47
2022-11-19T06:40:04.193Z,4.78
2022-11-19T06:45:17.526Z,5.35
2022-11-19T06:50:25.536Z,5.28
2022-11-19T06:55:29.591Z,5.20
2022-11-19T07:00:33.720Z,6.00
2022-11-19T07:05:47.117Z,5.85
2022-11-19T07:10:52.523Z,6.40
2022-11-19T07:15:55.872Z,6.78
2022-11-19T07:26:02.398Z,6.07
2022-11-19T07:31:06.689Z,6.22
2022-11-19T07:36:16.995Z,6.43
2022-11-19T07:41:31.462Z,6.85
2022-11-19T07:46:35.268Z,6.03
2022-11-19T07:51:48.091Z,6.45
2022-11-19T07:57:01.784Z,5.60
2022-11-19T08:02:05.377Z,6.70
2022-11-19T08:07:08.944Z,5.95
2022-11-19T08:12:12.453Z,7.15
2022-11-19T08:17:15.752Z,5.35
2022-11-19T08:22:19.042Z,6.18
2022-11-19T08:27:22.394Z,5.20
2022-11-19T08:32:25.859Z,6.15
2022-11-19T08:37:29.105Z,6.38
2022-11-19T08:42:32.747Z,5.70
2022-11-19T08:47:36.511Z,5.18
2022-11-19T08:52:40.124Z,5.40
2022-11-19T08:57:43.501Z,5.78
2022-11-19T09:02:47.085Z,5.63
2022-11-19T09:07:50.382Z,5.55
2022-11-19T09:12:53.729Z,5.30
2022-11-19T09:17:57.157Z,5.18
2022-11-19T09:23:00.769Z,5.57
2022-11-19T09:28:04.333Z,5.25
2022-11-19T09:33:10.745Z,4.72
2022-11-19T09:38:13.971Z,6.15
2022-11-19T09:43:38.801Z,5.68
2022-11-19T09:48:42.735Z,5.47
2022-11-19T09:54:06.147Z,5.70
2022-11-19T09:59:34.213Z,6.82
2022-11-19T10:04:37.682Z,5.78
2022-11-19T10:09:45.141Z,6.70
2022-11-19T10:15:01.412Z,5.35
2022-11-19T10:20:43.594Z,5.78
2022-11-19T10:25:52.370Z,5.10
2022-11-19T10:31:16.372Z,5.60
2022-11-19T10:36:28.840Z,5.78
2022-11-19T10:41:49.698Z,6.65
2022-11-19T10:46:53.150Z,5.15
2022-11-19T10:51:57.570Z,4.72
2022-11-19T10:57:02.764Z,5.05
2022-11-19T11:02:33.934Z,3.65
2022-11-19T11:07:50.912Z,5.03
2022-11-19T11:12:57.325Z,3.67
2022-11-19T11:18:03.817Z,3.88
2022-11-19T11:23:12.473Z,4.60
2022-11-19T11:28:18.213Z,3.65
2022-11-19T11:33:24.786Z,3.63
2022-11-19T11:38:30.135Z,3.92
2022-11-19T11:43:37.894Z,3.83
2022-11-19T11:48:49.049Z,3.70
2022-11-19T11:54:28.206Z,4.55
2022-11-19T11:59:32.342Z,3.95
2022-11-19T12:04:36.218Z,3.90
2022-11-19T12:09:58.742Z,4.18
2022-11-19T12:15:14.451Z,3.67
2022-11-19T12:20:40.472Z,4.30
2022-11-19T12:26:21.148Z,3.92
2022-11-19T12:31:45.672Z,3.83
2022-11-19T12:37:17.751Z,4.82
2022-11-19T12:42:27.151Z,4.85
2022-11-19T12:47:44.732Z,4.90
2022-11-19T12:53:30.826Z,4.07
2022-11-19T12:58:49.560Z,4.30
2022-11-19T13:03:52.720Z,4.50
2022-11-19T13:09:15.994Z,4.53
2022-11-19T13:14:30.878Z,5.25
2022-11-19T13:19:38.517Z,4.88
2022-11-19T13:24:47.010Z,7.32
2022-11-19T13:30:02.375Z,7.15
2022-11-19T13:35:24.942Z,7.45
2022-11-19T13:40:38.097Z,7.00
2022-11-19T13:45:44.421Z,7.20
2022-11-19T13:50:51.329Z,6.65
2022-11-19T13:55:57.835Z,6.43
2022-11-19T14:01:08.452Z,6.13
2022-11-19T14:06:24.437Z,5.68
2022-11-19T14:11:46.375Z,6.03
2022-11-19T14:17:00.566Z,6.28
2022-11-19T14:22:50.718Z,6.43
2022-11-19T14:27:54.632Z,6.45
2022-11-19T14:33:42.061Z,5.93
2022-11-19T14:38:58.076Z,6.20
2022-11-19T14:44:07.420Z,6.50
2022-11-19T14:49:32.008Z,7.32
2022-11-19T14:54:45.524Z,8.30
2022-11-19T14:59:52.645Z,7.75
2022-11-19T15:05:21.108Z,7.82
2022-11-19T15:10:28.935Z,8.85
2022-11-19T15:15:41.001Z,8.90
2022-11-19T15:21:05.191Z,9.30
2022-11-19T15:26:37.667Z,9.07
2022-11-19T15:32:21.986Z,8.80
2022-11-19T15:37:44.444Z,8.82
2022-11-19T15:42:54.627Z,9.73
2022-11-19T15:48:30.787Z,9.80
2022-11-19T15:53:34.349Z,9.32
2022-11-19T15:58:45.732Z,9.30
2022-11-19T16:03:51.998Z,8.57
2022-11-19T16:09:02.061Z,8.45
2022-11-19T16:14:19.957Z,8.32
2022-11-19T16:19:23.827Z,7.97
2022-11-19T16:24:32.021Z,8.13
2022-11-19T16:29:40.600Z,8.15
2022-11-19T16:34:44.319Z,8.70
2022-11-19T16:39:53.376Z,9.05
2022-11-19T16:45:14.823Z,9.52
2022-11-19T16:50:34.969Z,7.97
2022-11-19T16:55:43.555Z,9.15
2022-11-19T17:00:54.809Z,8.18
2022-11-19T17:05:59.233Z,8.80
2022-11-19T17:11:24.081Z,8.65
2022-11-19T17:16:27.541Z,9.27
2022-11-19T17:21:43.092Z,9.70
2022-11-19T17:26:49.685Z,9.20
2022-11-19T17:31:56.712Z,8.85
2022-11-19T17:37:00.640Z,7.88
2022-11-19T17:42:04.510Z,8.10
2022-11-19T17:47:24.582Z,8.40
2022-11-19T17:52:31.457Z,8.48
2022-11-19T17:57:41.123Z,7.55
2022-11-19T18:02:47.116Z,7.38
2022-11-19T18:07:55.091Z,7.13
2022-11-19T18:12:59.104Z,7.22
2022-11-19T18:18:03.137Z,8.02
2022-11-19T18:23:06.580Z,7.10
2022-11-19T18:28:10.074Z,6.95
2022-11-19T18:33:13.199Z,6.43
2022-11-19T18:38:19.657Z,6.15
2022-11-19T18:43:23.510Z,7.07
2022-11-19T18:48:31.843Z,6.60
2022-11-19T18:53:47.581Z,6.80
2022-11-19T18:58:52.323Z,7.90
2022-11-19T19:03:55.767Z,7.40
2022-11-19T19:09:01.741Z,6.68
2022-11-19T19:14:05.599Z,6.20
2022-11-19T19:19:15.963Z,6.45
2022-11-19T19:24:20.502Z,6.05
2022-11-19T19:29:24.041Z,5.85
2022-11-19T19:34:35.102Z,5.32
2022-11-19T19:39:38.874Z,6.50
2022-11-19T19:44:42.335Z,6.32
2022-11-19T19:49:45.748Z,6.25
2022-11-19T19:54:48.972Z,6.00
2022-11-19T19:59:52.371Z,7.05
2022-11-19T20:04:56.227Z,5.85
2022-11-19T20:09:59.749Z,5.60
2022-11-19T20:15:03.162Z,5.57
2022-11-19T20:20:08.190Z,5.95
2022-11-19T20:25:11.614Z,5.88
2022-11-19T20:30:15.520Z,5.50
2022-11-19T20:35:18.902Z,5.85
2022-11-19T20:40:22.975Z,5.20
2022-11-19T20:45:26.550Z,5.03
2022-11-19T20:50:30.279Z,5.47
2022-11-19T20:55:33.710Z,5.45
2022-11-19T21:05:40.597Z,4.30
2022-11-19T21:10:43.949Z,4.25
2022-11-19T21:20:50.472Z,4.60
2022-11-19T21:25:53.753Z,4.43
2022-11-19T21:30:57.249Z,5.10
2022-11-19T21:36:03.276Z,4.38
2022-11-19T21:41:07.715Z,4.07
2022-11-19T21:46:10.989Z,4.03
2022-11-19T21:51:14.328Z,4.10
2022-11-19T21:56:17.720Z,3.75
2022-11-19T22:01:21.538Z,4.38
2022-11-19T22:06:25.456Z,4.00
2022-11-19T22:11:28.987Z,3.53
2022-11-19T22:16:40.478Z,3.75
2022-11-19T22:21:43.978Z,4.22
2022-11-19T22:26:47.203Z,3.85
2022-11-19T22:31:50.633Z,3.92
2022-11-19T22:36:54.340Z,4.55
2022-11-19T22:41:58.076Z,4.22
2022-11-19T22:47:03.294Z,3.72
2022-11-19T22:52:08.694Z,4.90
2022-11-19T22:57:12.726Z,3.70
2022-11-19T23:02:16.009Z,4.32
2022-11-19T23:07:19.471Z,3.78
2022-11-19T23:12:22.797Z,4.25
2022-11-19T23:17:26.771Z,3.88
2022-11-19T23:22:32.758Z,3.85
2022-11-19T23:27:39.151Z,4.32
2022-11-19T23:32:42.979Z,3.80
2022-11-19T23:37:46.390Z,4.15
2022-11-19T23:42:52.126Z,3.75
2022-11-19T23:47:56.010Z,3.85
2022-11-19T23:53:00.315Z,4.05
2022-11-19T23:58:04.132Z,3.75
